sensor_id;sensor_type;location;lat;lon;timestamp;temperature;humidity
30572;DHT22;17348;50.948;10.696;2024-01-27T00:01:59;4.60;99.90
30572;DHT22;17348;50.948;10.696;2024-01-27T00:05:04;4.50;99.90
30572;DHT22;17348;50.948;10.696;2024-01-27T00:08:06;4.50;99.90
30572;DHT22;17348;50.948;10.696;2024-01-27T00:11:11;4.40;99.90
30572;DHT22;17348;50.948;10.696;2024-01-27T00:14:13;4.30;99.90
30572;DHT22;17348;50.948;10.696;2024-01-27T00:17:17;4.20;99.90
30572;DHT22;17348;50.948;10.696;2024-01-27T00:20:20;4.20;99.90
30572;DHT22;17348;50.948;10.696;2024-01-27T00:23:23;4.10;99.90
30572;DHT22;17348;50.948;10.696;2024-01-27T00:26:25;4.10;99.90
30572;DHT22;17348;50.948;10.696;2024-01-27T00:29:27;4.10;99.90
30572;DHT22;17348;50.948;10.696;2024-01-27T00:32:31;4.10;99.90
30572;DHT22;17348;50.948;10.696;2024-01-27T00:35:38;4.10;99.90
30572;DHT22;17348;50.948;10.696;2024-01-27T00:38:42;4.10;99.90
30572;DHT22;17348;50.948;10.696;2024-01-27T00:41:44;4.00;99.90
30572;DHT22;17348;50.948;10.696;2024-01-27T00:44:47;4.00;99.90
30572;DHT22;17348;50.948;10.696;2024-01-27T00:47:50;4.00;99.90
30572;DHT22;17348;50.948;10.696;2024-01-27T00:50:53;4.00;99.90
30572;DHT22;17348;50.948;10.696;2024-01-27T00:53:55;4.00;99.90
30572;DHT22;17348;50.948;10.696;2024-01-27T00:56:58;4.10;99.90
30572;DHT22;17348;50.948;10.696;2024-01-27T01:00:00;4.10;99.90
30572;DHT22;17348;50.948;10.696;2024-01-27T01:03:04;4.10;99.90
30572;DHT22;17348;50.948;10.696;2024-01-27T01:06:06;4.10;99.90
30572;DHT22;17348;50.948;10.696;2024-01-27T01:09:08;4.00;99.90
30572;DHT22;17348;50.948;10.696;2024-01-27T01:12:11;4.00;99.90
30572;DHT22;17348;50.948;10.696;2024-01-27T01:15:15;3.90;99.90
30572;DHT22;17348;50.948;10.696;2024-01-27T01:18:18;3.80;99.90
30572;DHT22;17348;50.948;10.696;2024-01-27T01:21:21;3.80;99.90
30572;DHT22;17348;50.948;10.696;2024-01-27T01:24:23;3.80;99.90
30572;DHT22;17348;50.948;10.696;2024-01-27T01:27:25;3.80;99.90
30572;DHT22;17348;50.948;10.696;2024-01-27T01:30:28;3.90;99.90
30572;DHT22;17348;50.948;10.696;2024-01-27T01:33:31;3.80;99.90
30572;DHT22;17348;50.948;10.696;2024-01-27T01:36:33;3.80;99.90
30572;DHT22;17348;50.948;10.696;2024-01-27T01:39:36;3.80;99.90
30572;DHT22;17348;50.948;10.696;2024-01-27T01:42:38;3.80;99.90
30572;DHT22;17348;50.948;10.696;2024-01-27T01:45:40;3.70;99.90
30572;DHT22;17348;50.948;10.696;2024-01-27T01:48:44;3.70;99.90
30572;DHT22;17348;50.948;10.696;2024-01-27T01:51:47;3.70;99.90
30572;DHT22;17348;50.948;10.696;2024-01-27T01:54:49;3.70;99.90
30572;DHT22;17348;50.948;10.696;2024-01-27T01:57:52;3.60;99.90
30572;DHT22;17348;50.948;10.696;2024-01-27T02:00:54;3.60;99.90
30572;DHT22;17348;50.948;10.696;2024-01-27T02:03:58;3.50;99.90
30572;DHT22;17348;50.948;10.696;2024-01-27T02:07:00;3.50;99.90
30572;DHT22;17348;50.948;10.696;2024-01-27T02:10:03;3.50;99.90
30572;DHT22;17348;50.948;10.696;2024-01-27T02:13:16;3.40;99.90
30572;DHT22;17348;50.948;10.696;2024-01-27T02:16:19;3.40;99.90
30572;DHT22;17348;50.948;10.696;2024-01-27T02:19:24;3.40;99.90
30572;DHT22;17348;50.948;10.696;2024-01-27T02:22:26;3.40;99.90
30572;DHT22;17348;50.948;10.696;2024-01-27T02:25:30;3.30;99.90
30572;DHT22;17348;50.948;10.696;2024-01-27T02:28:32;3.30;99.90
30572;DHT22;17348;50.948;10.696;2024-01-27T02:31:36;3.30;99.90
30572;DHT22;17348;50.948;10.696;2024-01-27T02:34:38;3.20;99.90
30572;DHT22;17348;50.948;10.696;2024-01-27T02:37:41;3.30;99.90
30572;DHT22;17348;50.948;10.696;2024-01-27T02:40:44;3.30;99.90
30572;DHT22;17348;50.948;10.696;2024-01-27T02:43:47;3.30;99.90
30572;DHT22;17348;50.948;10.696;2024-01-27T02:46:49;3.30;99.90
30572;DHT22;17348;50.948;10.696;2024-01-27T02:49:51;3.30;99.90
30572;DHT22;17348;50.948;10.696;2024-01-27T02:52:53;3.30;99.90
30572;DHT22;17348;50.948;10.696;2024-01-27T02:55:57;3.30;99.90
30572;DHT22;17348;50.948;10.696;2024-01-27T02:58:59;3.40;99.90
30572;DHT22;17348;50.948;10.696;2024-01-27T03:02:02;3.40;99.90
30572;DHT22;17348;50.948;10.696;2024-01-27T03:05:05;3.40;99.90
30572;DHT22;17348;50.948;10.696;2024-01-27T03:08:08;3.40;99.90
30572;DHT22;17348;50.948;10.696;2024-01-27T03:11:12;3.50;99.90
30572;DHT22;17348;50.948;10.696;2024-01-27T03:14:14;3.50;99.90
30572;DHT22;17348;50.948;10.696;2024-01-27T03:17:17;3.60;99.90
30572;DHT22;17348;50.948;10.696;2024-01-27T03:20:19;3.60;99.90
30572;DHT22;17348;50.948;10.696;2024-01-27T03:23:21;3.60;99.90
30572;DHT22;17348;50.948;10.696;2024-01-27T03:26:25;3.70;99.90
30572;DHT22;17348;50.948;10.696;2024-01-27T03:29:27;3.70;99.90
30572;DHT22;17348;50.948;10.696;2024-01-27T03:32:30;3.70;99.90
30572;DHT22;17348;50.948;10.696;2024-01-27T03:35:33;3.60;99.90
30572;DHT22;17348;50.948;10.696;2024-01-27T03:38:36;3.60;99.90
30572;DHT22;17348;50.948;10.696;2024-01-27T03:41:39;3.60;99.90
30572;DHT22;17348;50.948;10.696;2024-01-27T03:44:42;3.50;99.90
30572;DHT22;17348;50.948;10.696;2024-01-27T03:47:44;3.40;99.90
30572;DHT22;17348;50.948;10.696;2024-01-27T03:50:46;3.40;99.90
30572;DHT22;17348;50.948;10.696;2024-01-27T03:53:48;3.30;99.90
30572;DHT22;17348;50.948;10.696;2024-01-27T03:56:52;3.30;99.90
30572;DHT22;17348;50.948;10.696;2024-01-27T03:59:54;3.20;99.90
30572;DHT22;17348;50.948;10.696;2024-01-27T04:02:57;3.20;99.90
30572;DHT22;17348;50.948;10.696;2024-01-27T04:05:59;3.10;99.90
30572;DHT22;17348;50.948;10.696;2024-01-27T04:09:03;3.10;99.90
30572;DHT22;17348;50.948;10.696;2024-01-27T04:12:07;3.00;99.90
30572;DHT22;17348;50.948;10.696;2024-01-27T04:15:10;2.90;99.90
30572;DHT22;17348;50.948;10.696;2024-01-27T04:18:12;2.90;99.90
30572;DHT22;17348;50.948;10.696;2024-01-27T04:21:14;2.90;99.90
30572;DHT22;17348;50.948;10.696;2024-01-27T04:24:17;2.80;99.90
30572;DHT22;17348;50.948;10.696;2024-01-27T04:27:20;2.80;99.90
30572;DHT22;17348;50.948;10.696;2024-01-27T04:30:23;2.70;99.90
30572;DHT22;17348;50.948;10.696;2024-01-27T04:33:25;2.70;99.90
30572;DHT22;17348;50.948;10.696;2024-01-27T04:36:28;2.60;99.90
30572;DHT22;17348;50.948;10.696;2024-01-27T04:39:31;2.60;99.90
30572;DHT22;17348;50.948;10.696;2024-01-27T04:42:35;2.60;99.90
30572;DHT22;17348;50.948;10.696;2024-01-27T04:45:39;2.50;99.90
30572;DHT22;17348;50.948;10.696;2024-01-27T04:48:41;2.40;99.90
30572;DHT22;17348;50.948;10.696;2024-01-27T04:51:44;2.40;99.90
30572;DHT22;17348;50.948;10.696;2024-01-27T04:54:46;2.40;99.90
30572;DHT22;17348;50.948;10.696;2024-01-27T04:57:50;2.40;99.90
30572;DHT22;17348;50.948;10.696;2024-01-27T05:00:52;2.30;99.90
30572;DHT22;17348;50.948;10.696;2024-01-27T05:03:54;2.30;99.90
30572;DHT22;17348;50.948;10.696;2024-01-27T05:06:56;2.30;99.90
30572;DHT22;17348;50.948;10.696;2024-01-27T05:09:59;2.20;99.90
30572;DHT22;17348;50.948;10.696;2024-01-27T05:13:03;2.20;99.90
30572;DHT22;17348;50.948;10.696;2024-01-27T05:16:06;2.20;99.90
30572;DHT22;17348;50.948;10.696;2024-01-27T05:19:08;2.10;99.90
30572;DHT22;17348;50.948;10.696;2024-01-27T05:22:10;2.10;99.90
30572;DHT22;17348;50.948;10.696;2024-01-27T05:25:12;2.10;99.90
30572;DHT22;17348;50.948;10.696;2024-01-27T05:28:16;2.10;99.90
30572;DHT22;17348;50.948;10.696;2024-01-27T05:31:18;2.10;99.90
30572;DHT22;17348;50.948;10.696;2024-01-27T05:34:21;2.00;99.90
30572;DHT22;17348;50.948;10.696;2024-01-27T05:37:23;2.10;99.90
30572;DHT22;17348;50.948;10.696;2024-01-27T05:40:25;2.00;99.90
30572;DHT22;17348;50.948;10.696;2024-01-27T05:43:30;2.00;99.90
30572;DHT22;17348;50.948;10.696;2024-01-27T05:46:32;2.00;99.90
30572;DHT22;17348;50.948;10.696;2024-01-27T05:49:34;2.00;99.90
30572;DHT22;17348;50.948;10.696;2024-01-27T05:52:36;2.00;99.90
30572;DHT22;17348;50.948;10.696;2024-01-27T05:55:40;2.00;99.90
30572;DHT22;17348;50.948;10.696;2024-01-27T05:58:44;2.00;99.90
30572;DHT22;17348;50.948;10.696;2024-01-27T06:01:46;2.00;99.90
30572;DHT22;17348;50.948;10.696;2024-01-27T06:04:48;2.00;99.90
30572;DHT22;17348;50.948;10.696;2024-01-27T06:07:51;2.00;99.90
30572;DHT22;17348;50.948;10.696;2024-01-27T06:10:53;2.00;99.90
30572;DHT22;17348;50.948;10.696;2024-01-27T06:13:57;2.00;99.90
30572;DHT22;17348;50.948;10.696;2024-01-27T06:17:00;2.00;99.90
30572;DHT22;17348;50.948;10.696;2024-01-27T06:20:03;2.00;99.90
30572;DHT22;17348;50.948;10.696;2024-01-27T06:23:06;2.00;99.90
30572;DHT22;17348;50.948;10.696;2024-01-27T06:26:09;2.00;99.90
30572;DHT22;17348;50.948;10.696;2024-01-27T06:29:12;2.10;99.90
30572;DHT22;17348;50.948;10.696;2024-01-27T06:32:24;2.10;99.90
30572;DHT22;17348;50.948;10.696;2024-01-27T06:35:26;2.10;99.90
30572;DHT22;17348;50.948;10.696;2024-01-27T06:38:29;2.10;99.90
30572;DHT22;17348;50.948;10.696;2024-01-27T06:41:32;2.10;99.90
30572;DHT22;17348;50.948;10.696;2024-01-27T06:44:36;2.10;99.90
30572;DHT22;17348;50.948;10.696;2024-01-27T06:47:38;2.10;99.90
30572;DHT22;17348;50.948;10.696;2024-01-27T06:50:40;2.20;99.90
30572;DHT22;17348;50.948;10.696;2024-01-27T06:53:43;2.20;99.90
30572;DHT22;17348;50.948;10.696;2024-01-27T06:56:46;2.30;99.90
30572;DHT22;17348;50.948;10.696;2024-01-27T06:59:51;2.30;99.90
30572;DHT22;17348;50.948;10.696;2024-01-27T07:02:54;2.30;99.90
30572;DHT22;17348;50.948;10.696;2024-01-27T07:05:56;2.40;99.90
30572;DHT22;17348;50.948;10.696;2024-01-27T07:09:01;2.40;99.90
30572;DHT22;17348;50.948;10.696;2024-01-27T07:12:04;2.50;99.90
30572;DHT22;17348;50.948;10.696;2024-01-27T07:15:09;2.40;99.90
30572;DHT22;17348;50.948;10.696;2024-01-27T07:18:11;2.50;99.90
30572;DHT22;17348;50.948;10.696;2024-01-27T07:21:16;2.50;99.90
30572;DHT22;17348;50.948;10.696;2024-01-27T07:24:19;2.50;99.90
30572;DHT22;17348;50.948;10.696;2024-01-27T07:27:22;2.50;99.90
30572;DHT22;17348;50.948;10.696;2024-01-27T07:30:30;2.50;99.90
30572;DHT22;17348;50.948;10.696;2024-01-27T07:33:32;2.50;99.90
30572;DHT22;17348;50.948;10.696;2024-01-27T07:36:35;2.50;99.90
30572;DHT22;17348;50.948;10.696;2024-01-27T07:39:37;2.60;99.90
30572;DHT22;17348;50.948;10.696;2024-01-27T07:42:39;2.60;99.90
30572;DHT22;17348;50.948;10.696;2024-01-27T07:45:43;2.70;99.90
30572;DHT22;17348;50.948;10.696;2024-01-27T07:48:46;2.70;99.90
30572;DHT22;17348;50.948;10.696;2024-01-27T07:51:48;2.80;99.90
30572;DHT22;17348;50.948;10.696;2024-01-27T07:54:51;2.90;99.90
30572;DHT22;17348;50.948;10.696;2024-01-27T07:57:53;2.90;99.90
30572;DHT22;17348;50.948;10.696;2024-01-27T08:00:57;3.00;99.90
30572;DHT22;17348;50.948;10.696;2024-01-27T08:04:00;3.00;99.90
30572;DHT22;17348;50.948;10.696;2024-01-27T08:07:02;3.10;99.90
30572;DHT22;17348;50.948;10.696;2024-01-27T08:10:10;3.20;99.90
30572;DHT22;17348;50.948;10.696;2024-01-27T08:13:12;3.20;99.90
30572;DHT22;17348;50.948;10.696;2024-01-27T08:16:16;3.30;99.90
30572;DHT22;17348;50.948;10.696;2024-01-27T08:19:25;3.40;99.90
30572;DHT22;17348;50.948;10.696;2024-01-27T08:22:27;3.50;99.90
30572;DHT22;17348;50.948;10.696;2024-01-27T08:25:30;3.50;99.90
30572;DHT22;17348;50.948;10.696;2024-01-27T08:28:32;3.60;99.90
30572;DHT22;17348;50.948;10.696;2024-01-27T08:31:36;3.70;99.90
30572;DHT22;17348;50.948;10.696;2024-01-27T08:34:39;3.70;99.90
30572;DHT22;17348;50.948;10.696;2024-01-27T08:37:42;3.80;99.90
30572;DHT22;17348;50.948;10.696;2024-01-27T08:40:44;3.90;99.90
30572;DHT22;17348;50.948;10.696;2024-01-27T08:43:46;3.90;99.90
30572;DHT22;17348;50.948;10.696;2024-01-27T08:46:50;4.00;99.90
30572;DHT22;17348;50.948;10.696;2024-01-27T08:49:52;4.00;99.90
30572;DHT22;17348;50.948;10.696;2024-01-27T08:52:54;4.00;99.90
30572;DHT22;17348;50.948;10.696;2024-01-27T08:55:57;4.10;99.90
30572;DHT22;17348;50.948;10.696;2024-01-27T08:58:59;4.20;99.90
30572;DHT22;17348;50.948;10.696;2024-01-27T09:02:03;4.30;99.90
30572;DHT22;17348;50.948;10.696;2024-01-27T09:05:06;4.30;99.90
30572;DHT22;17348;50.948;10.696;2024-01-27T09:08:08;4.40;99.90
30572;DHT22;17348;50.948;10.696;2024-01-27T09:11:11;4.50;99.90
30572;DHT22;17348;50.948;10.696;2024-01-27T09:14:13;4.60;99.90
30572;DHT22;17348;50.948;10.696;2024-01-27T09:17:17;4.60;99.90
30572;DHT22;17348;50.948;10.696;2024-01-27T09:20:23;4.70;99.90
30572;DHT22;17348;50.948;10.696;2024-01-27T09:23:25;4.80;99.90
30572;DHT22;17348;50.948;10.696;2024-01-27T09:26:27;4.80;99.90
30572;DHT22;17348;50.948;10.696;2024-01-27T09:29:30;4.80;99.90
30572;DHT22;17348;50.948;10.696;2024-01-27T09:32:33;4.90;99.90
30572;DHT22;17348;50.948;10.696;2024-01-27T09:35:36;4.90;99.90
30572;DHT22;17348;50.948;10.696;2024-01-27T09:38:38;5.00;99.90
30572;DHT22;17348;50.948;10.696;2024-01-27T09:41:41;5.00;99.90
30572;DHT22;17348;50.948;10.696;2024-01-27T09:44:44;5.00;99.90
30572;DHT22;17348;50.948;10.696;2024-01-27T09:47:49;5.10;99.90
30572;DHT22;17348;50.948;10.696;2024-01-27T09:50:53;5.20;99.90
30572;DHT22;17348;50.948;10.696;2024-01-27T09:53:56;5.20;99.90
30572;DHT22;17348;50.948;10.696;2024-01-27T09:56:59;5.30;99.90
30572;DHT22;17348;50.948;10.696;2024-01-27T10:00:01;5.30;99.90
30572;DHT22;17348;50.948;10.696;2024-01-27T10:03:07;5.30;99.90
30572;DHT22;17348;50.948;10.696;2024-01-27T10:06:12;5.40;99.90
30572;DHT22;17348;50.948;10.696;2024-01-27T10:09:16;5.50;99.90
30572;DHT22;17348;50.948;10.696;2024-01-27T10:12:21;5.40;99.90
30572;DHT22;17348;50.948;10.696;2024-01-27T10:15:25;5.50;99.90
30572;DHT22;17348;50.948;10.696;2024-01-27T10:18:30;5.50;99.90
30572;DHT22;17348;50.948;10.696;2024-01-27T10:21:33;5.60;99.90
30572;DHT22;17348;50.948;10.696;2024-01-27T10:24:35;5.60;99.90
30572;DHT22;17348;50.948;10.696;2024-01-27T10:27:38;5.70;99.90
30572;DHT22;17348;50.948;10.696;2024-01-27T10:30:40;5.70;99.90
30572;DHT22;17348;50.948;10.696;2024-01-27T10:33:53;5.70;99.90
30572;DHT22;17348;50.948;10.696;2024-01-27T10:36:55;5.80;99.90
30572;DHT22;17348;50.948;10.696;2024-01-27T10:40:01;5.90;99.90
30572;DHT22;17348;50.948;10.696;2024-01-27T10:43:05;5.90;99.90
30572;DHT22;17348;50.948;10.696;2024-01-27T10:46:08;5.90;99.90
30572;DHT22;17348;50.948;10.696;2024-01-27T10:49:14;5.90;99.90
30572;DHT22;17348;50.948;10.696;2024-01-27T10:52:18;6.00;99.90
30572;DHT22;17348;50.948;10.696;2024-01-27T10:55:23;6.00;99.90
30572;DHT22;17348;50.948;10.696;2024-01-27T10:58:26;6.10;99.90
30572;DHT22;17348;50.948;10.696;2024-01-27T11:01:29;6.10;99.90
30572;DHT22;17348;50.948;10.696;2024-01-27T11:04:35;6.20;99.90
30572;DHT22;17348;50.948;10.696;2024-01-27T11:07:39;6.30;99.90
30572;DHT22;17348;50.948;10.696;2024-01-27T11:10:43;6.30;99.90
30572;DHT22;17348;50.948;10.696;2024-01-27T11:13:46;6.40;99.90
30572;DHT22;17348;50.948;10.696;2024-01-27T11:16:54;6.40;99.90
30572;DHT22;17348;50.948;10.696;2024-01-27T11:19:58;6.40;99.90
30572;DHT22;17348;50.948;10.696;2024-01-27T11:23:10;6.50;99.90
30572;DHT22;17348;50.948;10.696;2024-01-27T11:26:19;6.50;99.90
30572;DHT22;17348;50.948;10.696;2024-01-27T11:29:21;6.60;99.90
30572;DHT22;17348;50.948;10.696;2024-01-27T11:32:26;6.60;99.90
30572;DHT22;17348;50.948;10.696;2024-01-27T11:35:29;6.70;99.90
30572;DHT22;17348;50.948;10.696;2024-01-27T11:38:32;6.80;99.90
30572;DHT22;17348;50.948;10.696;2024-01-27T11:41:35;6.80;99.90
30572;DHT22;17348;50.948;10.696;2024-01-27T11:44:37;6.90;99.90
30572;DHT22;17348;50.948;10.696;2024-01-27T11:47:40;7.00;99.90
30572;DHT22;17348;50.948;10.696;2024-01-27T11:50:44;7.10;99.90
30572;DHT22;17348;50.948;10.696;2024-01-27T11:53:46;7.10;99.90
30572;DHT22;17348;50.948;10.696;2024-01-27T11:56:49;7.20;99.90
30572;DHT22;17348;50.948;10.696;2024-01-27T11:59:51;7.30;99.90
30572;DHT22;17348;50.948;10.696;2024-01-27T12:02:54;7.30;99.90
30572;DHT22;17348;50.948;10.696;2024-01-27T12:05:58;7.40;99.90
30572;DHT22;17348;50.948;10.696;2024-01-27T12:09:00;7.50;99.90
30572;DHT22;17348;50.948;10.696;2024-01-27T12:12:04;7.50;99.90
30572;DHT22;17348;50.948;10.696;2024-01-27T12:15:07;7.60;99.90
30572;DHT22;17348;50.948;10.696;2024-01-27T12:18:09;7.60;99.90
30572;DHT22;17348;50.948;10.696;2024-01-27T12:21:18;7.70;99.90
30572;DHT22;17348;50.948;10.696;2024-01-27T12:24:21;7.70;99.90
30572;DHT22;17348;50.948;10.696;2024-01-27T12:27:27;7.70;99.90
30572;DHT22;17348;50.948;10.696;2024-01-27T12:30:31;7.60;99.90
30572;DHT22;17348;50.948;10.696;2024-01-27T12:33:34;7.50;99.90
30572;DHT22;17348;50.948;10.696;2024-01-27T12:36:41;7.50;99.90
30572;DHT22;17348;50.948;10.696;2024-01-27T12:39:44;7.50;99.90
30572;DHT22;17348;50.948;10.696;2024-01-27T12:42:47;7.60;99.90
30572;DHT22;17348;50.948;10.696;2024-01-27T12:45:49;7.60;99.90
30572;DHT22;17348;50.948;10.696;2024-01-27T12:48:51;7.60;99.90
30572;DHT22;17348;50.948;10.696;2024-01-27T12:51:55;7.70;99.90
30572;DHT22;17348;50.948;10.696;2024-01-27T12:54:57;7.80;99.90
30572;DHT22;17348;50.948;10.696;2024-01-27T12:58:00;7.80;99.90
30572;DHT22;17348;50.948;10.696;2024-01-27T13:01:05;7.80;99.90
30572;DHT22;17348;50.948;10.696;2024-01-27T13:04:11;7.80;99.90
30572;DHT22;17348;50.948;10.696;2024-01-27T13:07:15;7.70;99.90
30572;DHT22;17348;50.948;10.696;2024-01-27T13:10:17;7.70;99.90
30572;DHT22;17348;50.948;10.696;2024-01-27T13:13:20;7.70;99.90
30572;DHT22;17348;50.948;10.696;2024-01-27T13:16:24;7.70;99.90
30572;DHT22;17348;50.948;10.696;2024-01-27T13:19:27;7.60;99.90
30572;DHT22;17348;50.948;10.696;2024-01-27T13:22:32;7.60;99.90
30572;DHT22;17348;50.948;10.696;2024-01-27T13:25:34;7.60;99.90
30572;DHT22;17348;50.948;10.696;2024-01-27T13:28:36;7.60;99.90
30572;DHT22;17348;50.948;10.696;2024-01-27T13:31:41;7.60;99.90
30572;DHT22;17348;50.948;10.696;2024-01-27T13:34:43;7.60;99.90
30572;DHT22;17348;50.948;10.696;2024-01-27T13:37:47;7.60;99.90
30572;DHT22;17348;50.948;10.696;2024-01-27T13:40:50;7.60;99.90
30572;DHT22;17348;50.948;10.696;2024-01-27T13:43:52;7.50;99.90
30572;DHT22;17348;50.948;10.696;2024-01-27T13:46:54;7.60;99.90
30572;DHT22;17348;50.948;10.696;2024-01-27T13:50:01;7.60;99.90
30572;DHT22;17348;50.948;10.696;2024-01-27T13:53:05;7.60;99.90
30572;DHT22;17348;50.948;10.696;2024-01-27T13:56:07;7.60;99.90
30572;DHT22;17348;50.948;10.696;2024-01-27T13:59:10;7.50;99.90
30572;DHT22;17348;50.948;10.696;2024-01-27T14:02:12;7.50;99.90
30572;DHT22;17348;50.948;10.696;2024-01-27T14:05:15;7.50;99.90
30572;DHT22;17348;50.948;10.696;2024-01-27T14:08:19;7.60;99.90
30572;DHT22;17348;50.948;10.696;2024-01-27T14:11:21;7.60;99.90
30572;DHT22;17348;50.948;10.696;2024-01-27T14:14:24;7.60;99.90
30572;DHT22;17348;50.948;10.696;2024-01-27T14:17:26;7.60;99.90
30572;DHT22;17348;50.948;10.696;2024-01-27T14:20:31;7.70;99.90
30572;DHT22;17348;50.948;10.696;2024-01-27T14:23:36;7.70;99.90
30572;DHT22;17348;50.948;10.696;2024-01-27T14:26:38;7.70;99.90
30572;DHT22;17348;50.948;10.696;2024-01-27T14:29:41;7.60;99.90
30572;DHT22;17348;50.948;10.696;2024-01-27T14:32:43;7.50;99.90
30572;DHT22;17348;50.948;10.696;2024-01-27T14:35:46;7.40;99.90
30572;DHT22;17348;50.948;10.696;2024-01-27T14:38:51;7.40;99.90
30572;DHT22;17348;50.948;10.696;2024-01-27T14:41:53;7.40;99.90
30572;DHT22;17348;50.948;10.696;2024-01-27T14:44:55;7.30;99.90
30572;DHT22;17348;50.948;10.696;2024-01-27T14:48:00;7.30;99.90
30572;DHT22;17348;50.948;10.696;2024-01-27T14:51:02;7.30;99.90
30572;DHT22;17348;50.948;10.696;2024-01-27T14:54:07;7.20;99.90
30572;DHT22;17348;50.948;10.696;2024-01-27T14:57:09;7.20;99.90
30572;DHT22;17348;50.948;10.696;2024-01-27T15:00:12;7.10;99.90
30572;DHT22;17348;50.948;10.696;2024-01-27T15:03:16;7.10;99.90
30572;DHT22;17348;50.948;10.696;2024-01-27T15:06:19;7.00;99.90
30572;DHT22;17348;50.948;10.696;2024-01-27T15:09:24;7.00;99.90
30572;DHT22;17348;50.948;10.696;2024-01-27T15:12:26;6.90;99.90
30572;DHT22;17348;50.948;10.696;2024-01-27T15:15:28;6.80;99.90
30572;DHT22;17348;50.948;10.696;2024-01-27T15:18:31;6.80;99.90
30572;DHT22;17348;50.948;10.696;2024-01-27T15:21:35;6.70;99.90
30572;DHT22;17348;50.948;10.696;2024-01-27T15:24:38;6.60;99.90
30572;DHT22;17348;50.948;10.696;2024-01-27T15:27:41;6.60;99.90
30572;DHT22;17348;50.948;10.696;2024-01-27T15:30:44;6.40;99.90
30572;DHT22;17348;50.948;10.696;2024-01-27T15:33:48;6.40;99.90
30572;DHT22;17348;50.948;10.696;2024-01-27T15:36:50;6.40;99.90
30572;DHT22;17348;50.948;10.696;2024-01-27T15:39:54;6.20;99.90
30572;DHT22;17348;50.948;10.696;2024-01-27T15:42:57;6.20;99.90
30572;DHT22;17348;50.948;10.696;2024-01-27T15:45:59;6.10;99.90
30572;DHT22;17348;50.948;10.696;2024-01-27T15:49:05;6.00;99.90
30572;DHT22;17348;50.948;10.696;2024-01-27T15:52:09;5.90;99.90
30572;DHT22;17348;50.948;10.696;2024-01-27T15:55:14;5.80;99.90
30572;DHT22;17348;50.948;10.696;2024-01-27T15:58:16;5.80;99.90
30572;DHT22;17348;50.948;10.696;2024-01-27T16:01:19;5.70;99.90
30572;DHT22;17348;50.948;10.696;2024-01-27T16:04:21;5.60;99.90
30572;DHT22;17348;50.948;10.696;2024-01-27T16:07:23;5.50;99.90
30572;DHT22;17348;50.948;10.696;2024-01-27T16:10:27;5.40;99.90
30572;DHT22;17348;50.948;10.696;2024-01-27T16:13:29;5.40;99.90
30572;DHT22;17348;50.948;10.696;2024-01-27T16:16:32;5.20;99.90
30572;DHT22;17348;50.948;10.696;2024-01-27T16:19:35;5.10;99.90
30572;DHT22;17348;50.948;10.696;2024-01-27T16:22:37;5.00;99.90
30572;DHT22;17348;50.948;10.696;2024-01-27T16:25:41;5.00;99.90
30572;DHT22;17348;50.948;10.696;2024-01-27T16:28:43;4.90;99.90
30572;DHT22;17348;50.948;10.696;2024-01-27T16:31:47;4.80;99.90
30572;DHT22;17348;50.948;10.696;2024-01-27T16:34:50;4.70;99.90
30572;DHT22;17348;50.948;10.696;2024-01-27T16:37:52;4.60;99.90
30572;DHT22;17348;50.948;10.696;2024-01-27T16:40:56;4.60;99.90
30572;DHT22;17348;50.948;10.696;2024-01-27T16:43:58;4.50;99.90
30572;DHT22;17348;50.948;10.696;2024-01-27T16:47:00;4.40;99.90
30572;DHT22;17348;50.948;10.696;2024-01-27T16:50:03;4.40;99.90
30572;DHT22;17348;50.948;10.696;2024-01-27T16:53:05;4.30;99.90
30572;DHT22;17348;50.948;10.696;2024-01-27T16:56:11;4.20;99.90
30572;DHT22;17348;50.948;10.696;2024-01-27T16:59:13;4.10;99.90
30572;DHT22;17348;50.948;10.696;2024-01-27T17:02:15;4.00;99.90
30572;DHT22;17348;50.948;10.696;2024-01-27T17:05:18;3.90;99.90
30572;DHT22;17348;50.948;10.696;2024-01-27T17:08:20;3.90;99.90
30572;DHT22;17348;50.948;10.696;2024-01-27T17:11:24;3.80;99.90
30572;DHT22;17348;50.948;10.696;2024-01-27T17:14:26;3.70;99.90
30572;DHT22;17348;50.948;10.696;2024-01-27T17:17:28;3.70;99.90
30572;DHT22;17348;50.948;10.696;2024-01-27T17:20:31;3.60;99.90
30572;DHT22;17348;50.948;10.696;2024-01-27T17:23:34;3.50;99.90
30572;DHT22;17348;50.948;10.696;2024-01-27T17:26:38;3.50;99.90
30572;DHT22;17348;50.948;10.696;2024-01-27T17:29:41;3.40;99.90
30572;DHT22;17348;50.948;10.696;2024-01-27T17:32:43;3.30;99.90
30572;DHT22;17348;50.948;10.696;2024-01-27T17:35:45;3.20;99.90
30572;DHT22;17348;50.948;10.696;2024-01-27T17:38:49;3.20;99.90
30572;DHT22;17348;50.948;10.696;2024-01-27T17:41:54;3.10;99.90
30572;DHT22;17348;50.948;10.696;2024-01-27T17:44:56;3.10;99.90
30572;DHT22;17348;50.948;10.696;2024-01-27T17:47:58;3.10;99.90
30572;DHT22;17348;50.948;10.696;2024-01-27T17:51:00;3.00;99.90
30572;DHT22;17348;50.948;10.696;2024-01-27T17:54:03;3.00;99.90
30572;DHT22;17348;50.948;10.696;2024-01-27T17:57:07;2.90;99.90
30572;DHT22;17348;50.948;10.696;2024-01-27T18:00:13;2.90;99.90
30572;DHT22;17348;50.948;10.696;2024-01-27T18:03:19;2.80;99.90
30572;DHT22;17348;50.948;10.696;2024-01-27T18:06:21;2.70;99.90
30572;DHT22;17348;50.948;10.696;2024-01-27T18:09:24;2.60;99.90
30572;DHT22;17348;50.948;10.696;2024-01-27T18:12:27;2.50;99.90
30572;DHT22;17348;50.948;10.696;2024-01-27T18:15:30;2.40;99.90
30572;DHT22;17348;50.948;10.696;2024-01-27T18:18:32;2.40;99.90
30572;DHT22;17348;50.948;10.696;2024-01-27T18:21:34;2.30;99.90
30572;DHT22;17348;50.948;10.696;2024-01-27T18:24:37;2.20;99.90
30572;DHT22;17348;50.948;10.696;2024-01-27T18:27:40;2.20;99.90
30572;DHT22;17348;50.948;10.696;2024-01-27T18:30:43;2.10;99.90
30572;DHT22;17348;50.948;10.696;2024-01-27T18:33:45;2.10;99.90
30572;DHT22;17348;50.948;10.696;2024-01-27T18:36:50;2.10;99.90
30572;DHT22;17348;50.948;10.696;2024-01-27T18:39:52;2.00;99.90
30572;DHT22;17348;50.948;10.696;2024-01-27T18:43:00;2.00;99.90
30572;DHT22;17348;50.948;10.696;2024-01-27T18:46:03;1.90;99.90
30572;DHT22;17348;50.948;10.696;2024-01-27T18:49:09;1.90;99.90
30572;DHT22;17348;50.948;10.696;2024-01-27T18:52:11;1.90;99.90
30572;DHT22;17348;50.948;10.696;2024-01-27T18:55:13;1.80;99.90
30572;DHT22;17348;50.948;10.696;2024-01-27T18:58:19;1.80;99.90
30572;DHT22;17348;50.948;10.696;2024-01-27T19:01:22;1.70;99.90
30572;DHT22;17348;50.948;10.696;2024-01-27T19:04:25;1.70;99.90
30572;DHT22;17348;50.948;10.696;2024-01-27T19:07:27;1.70;99.90
30572;DHT22;17348;50.948;10.696;2024-01-27T19:10:29;1.60;99.90
30572;DHT22;17348;50.948;10.696;2024-01-27T19:13:33;1.50;99.90
30572;DHT22;17348;50.948;10.696;2024-01-27T19:16:35;1.50;99.90